createdAt,value
2023-04-15T00:01:43.521Z,14.86
2023-04-15T00:06:38.406Z,14.90
2023-04-15T00:11:35.152Z,14.91
2023-04-15T00:16:29.802Z,14.50
2023-04-15T00:21:22.975Z,14.82
2023-04-15T00:26:16.311Z,14.80
2023-04-15T00:31:09.987Z,14.94
2023-04-15T00:36:05.156Z,14.73
2023-04-15T00:40:58.804Z,14.74
2023-04-15T00:45:54.772Z,14.97
2023-04-15T00:50:48.557Z,14.81
2023-04-15T00:55:43.799Z,14.55
2023-04-15T01:00:37.445Z,14.40
2023-04-15T01:05:31.597Z,14.26
2023-04-15T01:10:24.927Z,14.22
2023-04-15T01:15:19.894Z,14.08
2023-04-15T01:20:13.719Z,14.22
2023-04-15T01:25:10.986Z,13.98
2023-04-15T01:30:06.529Z,13.77
2023-04-15T01:34:59.801Z,13.68
2023-04-15T01:39:53.041Z,13.18
2023-04-15T01:44:46.445Z,13.68
2023-04-15T01:49:41.188Z,13.55
2023-04-15T01:54:34.517Z,13.22
2023-04-15T01:59:27.820Z,13.70
2023-04-15T02:04:20.997Z,13.68
2023-04-15T02:09:15.634Z,13.40
2023-04-15T02:14:12.072Z,13.62
2023-04-15T02:19:05.456Z,13.58
2023-04-15T02:23:58.601Z,13.61
2023-04-15T02:28:53.622Z,12.72
2023-04-15T02:33:47.224Z,13.54
2023-04-15T02:38:42.537Z,13.08
2023-04-15T02:43:35.790Z,13.07
2023-04-15T02:48:30.651Z,13.20
2023-04-15T02:53:23.852Z,13.21
2023-04-15T02:58:17.199Z,12.74
2023-04-15T03:03:10.961Z,13.34
2023-04-15T03:08:07.828Z,13.32
2023-04-15T03:13:01.309Z,13.00
2023-04-15T03:17:54.498Z,12.60
2023-04-15T03:22:47.589Z,13.12
2023-04-15T03:27:43.108Z,13.11
2023-04-15T03:32:37.796Z,13.03
2023-04-15T03:37:33.276Z,12.91
2023-04-15T03:42:26.459Z,12.97
2023-04-15T03:47:21.368Z,12.23
2023-04-15T03:52:14.944Z,12.34
2023-04-15T03:57:08.164Z,12.86
2023-04-15T04:02:01.694Z,12.18
2023-04-15T04:06:56.457Z,12.62
2023-04-15T04:11:49.729Z,12.54
2023-04-15T04:16:42.892Z,12.01
2023-04-15T04:21:36.639Z,12.46
2023-04-15T04:26:31.330Z,12.55
2023-04-15T04:31:26.380Z,12.39
2023-04-15T04:36:19.630Z,12.40
2023-04-15T04:41:12.901Z,12.61
2023-04-15T04:46:07.424Z,12.72
2023-04-15T04:51:00.880Z,12.33
2023-04-15T04:55:53.998Z,12.78
2023-04-15T05:00:47.288Z,12.66
2023-04-15T05:05:41.792Z,12.77
2023-04-15T05:10:35.274Z,12.76
2023-04-15T05:15:37.025Z,12.60
2023-04-15T05:20:30.535Z,12.76
2023-04-15T05:25:25.192Z,12.55
2023-04-15T05:30:18.651Z,12.86
2023-04-15T05:35:12.853Z,12.96
2023-04-15T05:40:06.618Z,13.03
2023-04-15T05:45:01.671Z,12.92
2023-04-15T05:49:57.546Z,13.07
2023-04-15T05:54:50.786Z,13.21
2023-04-15T05:59:44.845Z,13.37
2023-04-15T06:04:39.778Z,13.84
2023-04-15T06:09:33.026Z,13.95
2023-04-15T06:14:26.332Z,14.24
2023-04-15T06:19:22.565Z,14.05
2023-04-15T06:24:20.158Z,14.61
2023-04-15T06:29:13.329Z,13.72
2023-04-15T06:34:08.809Z,14.53
2023-04-15T06:39:02.957Z,15.31
2023-04-15T06:44:01.745Z,15.11
2023-04-15T06:48:57.105Z,15.11
2023-04-15T06:53:50.499Z,14.83
2023-04-15T06:58:43.715Z,15.59
2023-04-15T07:03:38.568Z,15.17
2023-04-15T07:08:32.594Z,15.62
2023-04-15T07:13:25.945Z,15.76
2023-04-15T07:18:23.732Z,15.89
2023-04-15T07:23:21.742Z,16.02
2023-04-15T07:28:17.094Z,16.15
2023-04-15T07:33:12.946Z,16.50
2023-04-15T07:38:14.267Z,16.44
2023-04-15T07:43:09.022Z,16.07
2023-04-15T07:48:05.532Z,16.14
2023-04-15T07:53:00.900Z,16.51
2023-04-15T07:57:54.230Z,16.77
2023-04-15T08:02:50.050Z,16.55
2023-04-15T08:07:43.547Z,16.50
2023-04-15T08:12:37.290Z,17.32
2023-04-15T08:17:30.630Z,17.65
2023-04-15T08:22:28.817Z,17.38
2023-04-15T08:27:22.273Z,18.49
2023-04-15T08:32:15.554Z,19.34
2023-04-15T08:37:12.729Z,20.09
2023-04-15T08:42:17.673Z,21.43
2023-04-15T08:47:11.505Z,22.22
2023-04-15T08:52:05.260Z,22.89
2023-04-15T08:57:00.166Z,23.23
2023-04-15T09:01:59.905Z,23.82
2023-04-15T09:06:53.511Z,24.05
2023-04-15T09:11:46.854Z,24.03
2023-04-15T09:16:59.502Z,23.65
2023-04-15T09:21:58.015Z,23.62
2023-04-15T09:26:55.672Z,23.67
2023-04-15T09:31:49.078Z,23.91
2023-04-15T09:37:02.353Z,23.59
2023-04-15T09:42:18.499Z,23.19
2023-04-15T09:47:28.055Z,22.74
2023-04-15T09:52:22.810Z,22.58
2023-04-15T09:57:16.021Z,22.33
2023-04-15T10:02:09.546Z,22.12
2023-04-15T10:07:06.322Z,21.54
2023-04-15T10:12:06.256Z,20.98
2023-04-15T10:17:02.625Z,21.60
2023-04-15T10:21:57.098Z,22.39
2023-04-15T10:26:51.609Z,22.39
2023-04-15T10:31:46.469Z,22.38
2023-04-15T10:36:39.714Z,22.59
2023-04-15T10:41:34.654Z,22.85
2023-04-15T10:46:38.792Z,23.45
2023-04-15T10:51:33.584Z,24.04
2023-04-15T10:56:27.143Z,24.67
2023-04-15T11:01:23.350Z,25.38
2023-04-15T11:06:16.583Z,26.00
2023-04-15T11:11:11.371Z,26.19
2023-04-15T11:16:04.771Z,27.50
2023-04-15T11:21:00.220Z,28.30
2023-04-15T11:25:53.428Z,28.69
2023-04-15T11:30:48.472Z,28.93
2023-04-15T11:35:43.333Z,29.77
2023-04-15T11:40:39.852Z,29.48
2023-04-15T11:45:34.184Z,29.45
2023-04-15T11:51:05.327Z,29.13
2023-04-15T11:56:05.032Z,28.32
2023-04-15T12:01:01.477Z,29.10
2023-04-15T12:06:11.340Z,28.26
2023-04-15T12:11:04.906Z,27.68
2023-04-15T12:15:58.339Z,26.75
2023-04-15T12:20:51.691Z,26.25
2023-04-15T12:25:53.061Z,27.04
2023-04-15T12:30:51.755Z,26.16
2023-04-15T12:35:48.283Z,26.10
2023-04-15T12:40:44.673Z,25.53
2023-04-15T12:45:39.577Z,24.28
2023-04-15T12:50:33.315Z,24.39
2023-04-15T12:55:34.832Z,24.40
2023-04-15T13:00:28.686Z,25.08
2023-04-15T13:05:28.732Z,26.27
2023-04-15T13:10:23.853Z,27.38
2023-04-15T13:15:21.531Z,27.58
2023-04-15T13:20:17.634Z,27.01
2023-04-15T13:25:13.220Z,25.80
2023-04-15T13:30:07.951Z,25.10
2023-04-15T13:35:01.499Z,24.68
2023-04-15T13:39:58.956Z,23.29
2023-04-15T13:44:53.852Z,23.71
2023-04-15T13:49:47.617Z,24.71
2023-04-15T13:54:41.459Z,24.68
2023-04-15T13:59:36.407Z,23.90
2023-04-15T14:04:33.345Z,23.44
2023-04-15T14:09:28.089Z,23.75
2023-04-15T14:14:22.786Z,22.04
2023-04-15T14:19:16.801Z,22.78
2023-04-15T14:24:12.408Z,21.50
2023-04-15T14:29:06.707Z,22.21
2023-04-15T14:34:00.368Z,21.90
2023-04-15T14:38:54.027Z,22.06
2023-04-15T14:43:49.455Z,20.77
2023-04-15T14:48:43.789Z,21.41
2023-04-15T14:53:38.159Z,21.30
2023-04-15T14:58:34.995Z,21.41
2023-04-15T15:03:30.568Z,21.04
2023-04-15T15:08:25.756Z,21.02
2023-04-15T15:13:20.451Z,20.71
2023-04-15T15:18:19.409Z,20.69
2023-04-15T15:23:15.035Z,21.09
2023-04-15T15:28:09.267Z,20.07
2023-04-15T15:33:05.626Z,20.61
2023-04-15T15:38:01.638Z,20.90
2023-04-15T15:42:57.649Z,20.01
2023-04-15T15:47:51.332Z,19.65
2023-04-15T15:52:44.964Z,20.57
2023-04-15T15:57:38.284Z,20.34
2023-04-15T16:02:59.754Z,20.32
2023-04-15T16:07:46.939Z,20.06
2023-04-15T16:12:40.784Z,19.95
2023-04-15T16:17:35.757Z,19.16
2023-04-15T16:22:29.267Z,19.48
2023-04-15T16:27:23.017Z,19.08
2023-04-15T16:32:17.309Z,19.98
2023-04-15T16:37:12.171Z,19.87
2023-04-15T16:42:05.698Z,19.71
2023-04-15T16:46:58.971Z,19.82
2023-04-15T16:51:54.445Z,19.55
2023-04-15T16:56:51.254Z,19.67
2023-04-15T17:01:45.976Z,18.99
2023-04-15T17:06:40.164Z,19.54
2023-04-15T17:11:35.199Z,19.51
2023-04-15T17:16:30.131Z,19.42
2023-04-15T17:21:23.510Z,18.77
2023-04-15T17:26:16.891Z,19.19
2023-04-15T17:31:14.429Z,19.00
2023-04-15T17:36:09.477Z,18.82
2023-04-15T17:41:03.127Z,18.92
2023-04-15T17:46:00.813Z,17.63
2023-04-15T17:50:55.257Z,18.75
2023-04-15T17:55:53.418Z,18.75
2023-04-15T18:00:50.843Z,17.94
2023-04-15T18:05:44.201Z,18.43
2023-04-15T18:10:37.802Z,18.49
2023-04-15T18:15:37.275Z,18.26
2023-04-15T18:20:33.628Z,18.42
2023-04-15T18:25:27.207Z,18.36
2023-04-15T18:30:26.160Z,17.79
2023-04-15T18:35:21.882Z,18.24
2023-04-15T18:40:55.774Z,18.14
2023-04-15T18:45:49.200Z,17.94
2023-04-15T18:50:44.372Z,17.06
2023-04-15T18:55:37.704Z,17.35
2023-04-15T19:00:31.343Z,17.16
2023-04-15T19:05:24.684Z,17.38
2023-04-15T19:10:19.488Z,17.52
2023-04-15T19:15:16.921Z,17.82
2023-04-15T19:20:11.218Z,17.55
2023-04-15T19:25:07.366Z,17.66
2023-04-15T19:30:03.516Z,17.64
2023-04-15T19:34:56.864Z,17.53
2023-04-15T19:39:52.609Z,16.99
2023-04-15T19:44:45.943Z,17.42
2023-04-15T19:49:40.700Z,17.32
2023-04-15T19:54:37.054Z,17.48
2023-04-15T19:59:30.428Z,17.33
2023-04-15T20:04:23.878Z,17.30
2023-04-15T20:09:18.727Z,17.25
2023-04-15T20:14:14.669Z,17.12
2023-04-15T20:19:09.667Z,16.87
2023-04-15T20:24:05.924Z,16.79
2023-04-15T20:29:01.772Z,16.48
2023-04-15T20:33:55.157Z,17.30
2023-04-15T20:38:48.535Z,16.36
2023-04-15T20:43:41.915Z,17.20
2023-04-15T20:48:38.586Z,17.06
2023-04-15T20:53:34.712Z,16.99
2023-04-15T20:58:29.802Z,17.08
2023-04-15T21:03:23.313Z,16.65
2023-04-15T21:08:18.105Z,16.56
2023-04-15T21:13:13.219Z,16.21
2023-04-15T21:18:06.521Z,16.41
2023-04-15T21:22:59.771Z,16.36
2023-04-15T21:27:54.360Z,16.67
2023-04-15T21:32:47.602Z,16.61
2023-04-15T21:37:40.862Z,16.55
2023-04-15T21:42:34.241Z,16.53
2023-04-15T21:47:31.793Z,15.54
2023-04-15T21:52:44.917Z,16.31
2023-04-15T21:57:38.084Z,16.39
2023-04-15T22:02:32.843Z,16.36
2023-04-15T22:07:26.607Z,16.35
2023-04-15T22:12:19.690Z,16.11
2023-04-15T22:17:15.331Z,16.18
2023-04-15T22:22:09.946Z,15.98
2023-04-15T22:27:03.376Z,16.00
2023-04-15T22:31:56.762Z,15.20
2023-04-15T22:36:50.919Z,15.97
2023-04-15T22:41:46.052Z,15.14
2023-04-15T22:46:39.523Z,15.62
2023-04-15T22:51:33.644Z,15.75
2023-04-15T22:56:26.920Z,15.44
2023-04-15T23:01:21.717Z,15.35
2023-04-15T23:06:15.207Z,15.50
2023-04-15T23:11:10.853Z,15.68
2023-04-15T23:16:04.261Z,15.95
2023-04-15T23:20:59.083Z,15.89
2023-04-15T23:25:52.374Z,15.69
2023-04-15T23:30:45.783Z,15.69
2023-04-15T23:35:39.246Z,15.37
2023-04-15T23:40:33.951Z,15.28
2023-04-15T23:45:27.153Z,15.31
2023-04-15T23:50:20.521Z,14.93
2023-04-15T23:55:13.977Z,14.43
